createdAt,value
2018-06-23T00:00:11.320Z,79.23
2018-06-23T00:01:11.267Z,79.03
2018-06-23T00:02:11.237Z,78.36
2018-06-23T00:03:11.165Z,79.03
2018-06-23T00:04:11.133Z,78.94
2018-06-23T00:05:11.090Z,79.71
2018-06-23T00:06:11.038Z,80.00
2018-06-23T00:07:11.505Z,80.44
2018-06-23T00:08:10.968Z,80.15
2018-06-23T00:09:10.900Z,80.63
2018-06-23T00:10:10.869Z,80.25
2018-06-23T00:11:10.813Z,81.21
2018-06-23T00:12:10.781Z,80.92
2018-06-23T00:13:10.763Z,81.50
2018-06-23T00:14:10.692Z,80.83
2018-06-23T00:15:10.647Z,81.60
2018-06-23T00:16:10.601Z,81.60
2018-06-23T00:17:10.530Z,82.08
2018-06-23T00:18:10.484Z,82.17
2018-06-23T00:19:10.457Z,81.88
2018-06-23T00:20:10.400Z,81.88
2018-06-23T00:21:10.383Z,82.08
2018-06-23T00:22:10.331Z,81.30
2018-06-23T00:23:10.275Z,81.84
2018-06-23T00:24:10.223Z,82.23
2018-06-23T00:25:10.205Z,82.61
2018-06-23T00:26:10.145Z,82.52
2018-06-23T00:27:10.661Z,82.27
2018-06-23T00:28:10.077Z,82.27
2018-06-23T00:29:09.981Z,81.88
2018-06-23T00:30:09.963Z,81.98
2018-06-23T00:31:09.899Z,81.70
2018-06-23T00:32:09.847Z,81.40
2018-06-23T00:33:09.856Z,81.50
2018-06-23T00:34:09.782Z,81.79
2018-06-23T00:35:09.724Z,81.60
2018-06-23T00:36:10.242Z,81.21
2018-06-23T00:37:09.645Z,80.92
2018-06-23T00:38:09.579Z,81.21
2018-06-23T00:39:09.534Z,81.88
2018-06-23T00:40:09.495Z,81.60
2018-06-23T00:41:09.433Z,81.98
2018-06-23T00:42:09.412Z,82.17
2018-06-23T00:43:09.906Z,81.88
2018-06-23T00:44:09.340Z,81.60
2018-06-23T00:45:09.280Z,81.70
2018-06-23T00:46:09.224Z,81.79
2018-06-23T00:47:09.203Z,81.60
2018-06-23T00:48:09.135Z,81.02
2018-06-23T00:49:09.079Z,81.12
2018-06-23T00:50:09.050Z,82.04
2018-06-23T00:51:09.015Z,81.94
2018-06-23T00:52:08.936Z,82.23
2018-06-23T00:53:08.897Z,82.04
2018-06-23T00:54:08.859Z,80.69
2018-06-23T00:55:08.855Z,81.37
2018-06-23T00:56:08.794Z,82.14
2018-06-23T00:57:08.753Z,82.71
2018-06-23T00:58:08.683Z,81.94
2018-06-23T00:59:08.624Z,82.42
2018-06-23T01:00:08.588Z,81.88
2018-06-23T01:01:08.533Z,81.65
2018-06-23T01:02:08.494Z,81.50
2018-06-23T01:03:08.482Z,81.12
2018-06-23T01:04:08.428Z,81.12
2018-06-23T01:05:08.917Z,81.46
2018-06-23T01:06:08.318Z,80.73
2018-06-23T01:07:08.285Z,81.56
2018-06-23T01:08:08.201Z,81.07
2018-06-23T01:09:08.187Z,80.79
2018-06-23T01:10:08.142Z,80.88
2018-06-23T01:11:08.085Z,80.79
2018-06-23T01:12:08.052Z,81.27
2018-06-23T01:13:07.983Z,80.88
2018-06-23T01:14:07.952Z,81.17
2018-06-23T01:15:07.913Z,80.79
2018-06-23T01:16:07.868Z,80.88
2018-06-23T01:17:07.804Z,80.88
2018-06-23T01:18:07.793Z,80.79
2018-06-23T01:19:07.708Z,80.69
2018-06-23T01:20:07.704Z,81.17
2018-06-23T01:21:07.624Z,81.75
2018-06-23T01:22:07.575Z,81.94
2018-06-23T01:23:07.553Z,82.48
2018-06-23T01:24:07.492Z,81.99
2018-06-23T01:25:07.436Z,82.29
2018-06-23T01:26:07.428Z,82.38
2018-06-23T01:27:07.397Z,82.96
2018-06-23T01:28:07.321Z,82.38
2018-06-23T01:29:07.279Z,82.52
2018-06-23T01:30:07.206Z,82.52
2018-06-23T01:31:07.158Z,82.48
2018-06-23T01:32:07.132Z,83.00
2018-06-23T01:33:07.117Z,82.29
2018-06-23T01:34:07.029Z,82.71
2018-06-23T01:35:06.995Z,82.32
2018-06-23T01:36:06.941Z,82.61
2018-06-23T01:37:06.884Z,82.57
2018-06-23T01:38:06.859Z,82.81
2018-06-23T01:39:06.786Z,82.76
2018-06-23T01:40:06.780Z,82.96
2018-06-23T01:41:06.707Z,83.25
2018-06-23T01:42:06.669Z,83.63
2018-06-23T01:43:06.636Z,83.53
2018-06-23T01:44:06.583Z,83.73
2018-06-23T01:45:06.526Z,83.44
2018-06-23T01:46:06.492Z,84.21
2018-06-23T01:47:06.452Z,84.69
2018-06-23T01:48:06.430Z,85.27
2018-06-23T01:49:06.350Z,85.46
2018-06-23T01:50:06.306Z,86.13
2018-06-23T01:51:06.263Z,86.18
2018-06-23T01:52:06.224Z,86.66
2018-06-23T01:53:06.189Z,86.85
2018-06-23T01:54:06.125Z,86.38
2018-06-23T01:55:06.079Z,86.32
2018-06-23T01:56:06.019Z,86.13
2018-06-23T01:57:05.967Z,86.71
2018-06-23T01:58:05.933Z,86.80
2018-06-23T01:59:05.906Z,87.76
2018-06-23T02:00:05.871Z,87.09
2018-06-23T02:01:05.817Z,87.29
2018-06-23T02:02:05.766Z,87.48
2018-06-23T02:03:05.707Z,86.99
2018-06-23T02:04:05.668Z,87.38
2018-06-23T02:05:05.601Z,87.38
2018-06-23T02:06:05.599Z,87.19
2018-06-23T02:07:05.524Z,88.06
2018-06-23T02:08:05.469Z,87.76
2018-06-23T02:09:05.423Z,87.96
2018-06-23T02:10:05.396Z,88.24
2018-06-23T02:11:05.352Z,88.34
2018-06-23T02:12:05.293Z,88.92
2018-06-23T02:13:05.246Z,88.73
2018-06-23T02:14:05.222Z,88.73
2018-06-23T02:15:05.156Z,89.11
2018-06-23T02:16:05.121Z,88.92
2018-06-23T02:17:05.095Z,89.50
2018-06-23T02:18:05.075Z,89.98
2018-06-23T02:19:04.998Z,90.26
2018-06-23T02:20:04.926Z,89.98
2018-06-23T02:21:04.876Z,90.17
2018-06-23T02:22:04.819Z,89.88
2018-06-23T02:23:04.820Z,89.98
2018-06-23T02:24:04.749Z,89.98
2018-06-23T02:25:04.697Z,89.98
2018-06-23T02:26:04.657Z,90.17
2018-06-23T02:27:04.603Z,89.98
2018-06-23T02:28:04.560Z,90.45
2018-06-23T02:29:04.533Z,90.26
2018-06-23T02:30:04.482Z,90.75
2018-06-23T02:31:04.423Z,91.03
2018-06-23T02:32:04.367Z,91.71
2018-06-23T02:33:04.352Z,91.71
2018-06-23T02:34:04.284Z,90.80
2018-06-23T02:35:04.239Z,91.13
2018-06-23T02:36:04.200Z,91.13
2018-06-23T02:37:04.134Z,91.03
2018-06-23T02:38:04.102Z,91.22
2018-06-23T02:39:04.056Z,91.90
2018-06-23T02:40:04.004Z,91.71
2018-06-23T02:41:03.949Z,91.80
2018-06-23T02:42:03.944Z,91.47
2018-06-23T02:43:03.894Z,91.61
2018-06-23T02:44:03.811Z,91.99
2018-06-23T02:45:03.785Z,90.99
2018-06-23T02:46:03.726Z,91.13
2018-06-23T02:47:03.717Z,90.99
2018-06-23T02:48:03.659Z,91.75
2018-06-23T02:49:03.582Z,91.37
2018-06-23T02:50:03.544Z,91.85
2018-06-23T02:51:03.548Z,91.66
2018-06-23T02:52:03.483Z,92.24
2018-06-23T02:53:03.423Z,92.14
2018-06-23T02:54:03.355Z,91.99
2018-06-23T02:55:03.331Z,92.05
2018-06-23T02:56:03.286Z,92.24
2018-06-23T02:57:03.235Z,91.95
2018-06-23T02:58:03.176Z,92.14
2018-06-23T02:59:03.129Z,92.24
2018-06-23T03:00:03.092Z,92.43
2018-06-23T03:01:03.062Z,92.81
2018-06-23T03:02:03.010Z,92.62
2018-06-23T03:03:02.990Z,92.33
2018-06-23T03:04:02.920Z,92.62
2018-06-23T03:05:02.856Z,92.43
2018-06-23T03:06:02.830Z,92.52
2018-06-23T03:07:02.782Z,92.81
2018-06-23T03:08:02.710Z,93.01
2018-06-23T03:09:02.778Z,92.81
2018-06-23T03:10:02.670Z,92.33
2018-06-23T03:11:02.593Z,93.29
2018-06-23T03:12:02.553Z,92.81
2018-06-23T03:13:03.006Z,93.01
2018-06-23T03:14:02.432Z,92.33
2018-06-23T03:15:02.428Z,93.01
2018-06-23T03:16:02.363Z,92.62
2018-06-23T03:17:02.299Z,92.52
2018-06-23T03:18:02.272Z,93.01
2018-06-23T03:19:02.211Z,93.19
2018-06-23T03:20:02.167Z,93.10
2018-06-23T03:21:02.121Z,93.10
2018-06-23T03:22:02.109Z,93.10
2018-06-23T03:23:02.059Z,93.58
2018-06-23T03:24:01.989Z,93.49
2018-06-23T03:25:01.960Z,93.58
2018-06-23T03:26:01.894Z,93.39
2018-06-23T03:27:01.851Z,93.29
2018-06-23T03:28:01.798Z,93.77
2018-06-23T03:29:01.791Z,93.68
2018-06-23T03:30:01.739Z,93.92
2018-06-23T03:31:01.681Z,94.40
2018-06-23T03:32:02.160Z,94.11
2018-06-23T03:33:01.568Z,93.87
2018-06-23T03:34:01.514Z,93.68
2018-06-23T03:35:01.475Z,93.39
2018-06-23T03:36:01.424Z,93.96
2018-06-23T03:37:01.402Z,93.49
2018-06-23T03:38:01.404Z,93.01
2018-06-23T03:39:01.298Z,93.39
2018-06-23T03:40:01.250Z,93.96
2018-06-23T03:41:01.203Z,93.39
2018-06-23T03:42:01.161Z,93.39
2018-06-23T03:43:01.111Z,93.39
2018-06-23T03:44:01.072Z,93.77
2018-06-23T03:45:01.031Z,93.10
2018-06-23T03:46:00.992Z,93.39
2018-06-23T03:47:00.950Z,93.19
2018-06-23T03:48:00.874Z,93.39
2018-06-23T03:49:00.851Z,93.77
2018-06-23T03:50:00.801Z,93.34
2018-06-23T03:51:00.733Z,93.87
2018-06-23T03:52:00.698Z,93.39
2018-06-23T03:53:00.673Z,93.39
2018-06-23T03:54:00.633Z,93.39
2018-06-23T03:55:00.562Z,93.82
2018-06-23T03:56:00.526Z,93.92
2018-06-23T03:57:00.471Z,93.73
2018-06-23T03:58:00.932Z,93.54
2018-06-23T03:59:00.363Z,93.34
2018-06-23T04:00:00.325Z,93.63
2018-06-23T04:01:00.284Z,93.92
2018-06-23T04:02:00.768Z,94.40
2018-06-23T04:03:00.215Z,94.35
2018-06-23T04:04:00.156Z,94.31
2018-06-23T04:05:00.100Z,93.63
2018-06-23T04:06:00.056Z,94.01
2018-06-23T04:07:00.025Z,93.82
2018-06-23T04:07:59.981Z,93.73
2018-06-23T04:08:59.940Z,94.31
2018-06-23T04:09:59.877Z,94.31
2018-06-23T04:10:59.811Z,94.40
2018-06-23T04:11:59.802Z,94.31
2018-06-23T04:12:59.750Z,94.49
2018-06-23T04:13:59.686Z,94.49
2018-06-23T04:14:59.639Z,93.92
2018-06-23T04:15:59.602Z,94.31
2018-06-23T04:16:59.539Z,93.92
2018-06-23T04:17:59.502Z,93.54
2018-06-23T04:18:59.442Z,93.73
2018-06-23T04:19:59.441Z,93.63
2018-06-23T04:20:59.382Z,93.44
2018-06-23T04:21:59.328Z,94.11
2018-06-23T04:22:59.272Z,93.73
2018-06-23T04:23:59.242Z,93.63
2018-06-23T04:24:59.175Z,93.58
2018-06-23T04:25:59.129Z,93.25
2018-06-23T04:26:59.102Z,93.34
2018-06-23T04:27:59.040Z,94.69
2018-06-23T04:28:58.987Z,94.59
2018-06-23T04:29:59.492Z,94.59
2018-06-23T04:30:58.902Z,94.69
2018-06-23T04:31:58.842Z,94.11
2018-06-23T04:32:58.834Z,94.21
2018-06-23T04:33:58.804Z,94.31
2018-06-23T04:34:58.730Z,94.31
2018-06-23T04:35:58.671Z,94.98
2018-06-23T04:36:58.605Z,94.49
2018-06-23T04:37:58.607Z,94.69
2018-06-23T04:38:58.532Z,94.98
2018-06-23T04:39:58.497Z,94.78
2018-06-23T04:40:58.435Z,94.78
2018-06-23T04:41:58.415Z,94.40
2018-06-23T04:42:58.358Z,94.69
2018-06-23T04:43:58.326Z,94.69
2018-06-23T04:44:58.256Z,95.07
2018-06-23T04:45:58.196Z,94.93
2018-06-23T04:46:58.177Z,94.93
2018-06-23T04:47:58.126Z,95.21
2018-06-23T04:48:58.075Z,95.98
2018-06-23T04:49:58.040Z,95.45
2018-06-23T04:50:57.977Z,95.41
2018-06-23T04:51:57.917Z,94.78
2018-06-23T04:52:57.913Z,94.88
2018-06-23T04:53:57.873Z,94.98
2018-06-23T04:54:57.780Z,95.17
2018-06-23T04:55:57.732Z,94.78
2018-06-23T04:56:58.223Z,94.59
2018-06-23T04:57:57.695Z,94.98
2018-06-23T04:58:57.619Z,94.93
2018-06-23T04:59:57.562Z,94.54
2018-06-23T05:00:57.512Z,94.54
2018-06-23T05:01:57.467Z,94.54
2018-06-23T05:02:57.416Z,95.41
2018-06-23T05:03:57.405Z,95.03
2018-06-23T05:04:57.323Z,95.21
2018-06-23T05:05:57.283Z,94.93
2018-06-23T05:06:57.224Z,95.03
2018-06-23T05:07:57.201Z,95.41
2018-06-23T05:08:57.154Z,94.35
2018-06-23T05:09:57.113Z,94.64
2018-06-23T05:10:57.063Z,94.83
2018-06-23T05:11:57.007Z,95.03
2018-06-23T05:12:56.982Z,95.12
2018-06-23T05:13:56.928Z,95.12
2018-06-23T05:14:56.897Z,95.12
2018-06-23T05:15:56.821Z,94.59
2018-06-23T05:16:56.795Z,94.31
2018-06-23T05:17:56.758Z,94.11
2018-06-23T05:18:56.694Z,93.73
2018-06-23T05:19:56.631Z,93.73
2018-06-23T05:20:56.576Z,93.34
2018-06-23T05:21:56.526Z,94.11
2018-06-23T05:22:56.497Z,93.73
2018-06-23T05:23:56.448Z,93.34
2018-06-23T05:24:56.393Z,93.73
2018-06-23T05:25:56.435Z,94.16
2018-06-23T05:26:56.326Z,94.69
2018-06-23T05:27:56.270Z,94.31
2018-06-23T05:28:56.233Z,94.49
2018-06-23T05:29:56.158Z,93.92
2018-06-23T05:30:56.120Z,93.82
2018-06-23T05:31:56.073Z,93.54
2018-06-23T05:32:56.043Z,93.44
2018-06-23T05:33:55.990Z,93.59
2018-06-23T05:34:55.943Z,94.35
2018-06-23T05:35:55.897Z,94.26
2018-06-23T05:36:55.844Z,94.40
2018-06-23T05:37:55.790Z,94.35
2018-06-23T05:38:55.761Z,93.77
2018-06-23T05:39:55.715Z,94.35
2018-06-23T05:40:55.661Z,94.26
2018-06-23T05:41:55.631Z,94.16
2018-06-23T05:42:55.564Z,94.35
2018-06-23T05:43:55.552Z,94.26
2018-06-23T05:44:55.472Z,93.97
2018-06-23T05:45:55.459Z,94.35
2018-06-23T05:46:55.387Z,94.07
2018-06-23T05:47:55.359Z,94.26
2018-06-23T05:48:55.298Z,94.64
2018-06-23T05:49:55.260Z,94.26
2018-06-23T05:50:55.204Z,93.97
2018-06-23T05:51:55.158Z,93.97
2018-06-23T05:52:55.122Z,93.97
2018-06-23T05:53:55.072Z,94.64
2018-06-23T05:54:55.028Z,94.16
2018-06-23T05:55:54.974Z,94.16
2018-06-23T05:56:54.965Z,94.16
2018-06-23T05:57:54.904Z,93.87
2018-06-23T05:58:54.818Z,94.16
2018-06-23T05:59:54.786Z,93.77
2018-06-23T06:00:54.748Z,93.77
2018-06-23T06:01:54.706Z,94.26
2018-06-23T06:02:54.667Z,94.83
2018-06-23T06:03:54.607Z,95.12
2018-06-23T06:04:54.571Z,94.93
2018-06-23T06:05:54.501Z,94.83
2018-06-23T06:06:54.498Z,94.74
2018-06-23T06:07:54.426Z,94.26
2018-06-23T06:08:54.368Z,94.93
2018-06-23T06:09:54.335Z,94.74
2018-06-23T06:10:54.274Z,94.69
2018-06-23T06:11:54.261Z,94.88
2018-06-23T06:12:54.226Z,95.21
2018-06-23T06:13:54.154Z,94.69
2018-06-23T06:14:54.107Z,95.55
2018-06-23T06:15:54.029Z,94.64
2018-06-23T06:16:54.030Z,94.49
2018-06-23T06:17:53.953Z,94.74
2018-06-23T06:18:53.898Z,94.64
2018-06-23T06:19:53.859Z,94.21
2018-06-23T06:20:53.808Z,94.35
2018-06-23T06:21:53.778Z,94.64
2018-06-23T06:22:53.719Z,94.45
2018-06-23T06:23:53.802Z,93.68
2018-06-23T06:24:53.630Z,94.12
2018-06-23T06:25:53.580Z,94.21
2018-06-23T06:26:53.525Z,94.88
2018-06-23T06:27:53.525Z,94.69
2018-06-23T06:28:53.448Z,94.49
2018-06-23T06:29:53.413Z,94.21
2018-06-23T06:30:53.357Z,94.40
2018-06-23T06:31:53.332Z,94.69
2018-06-23T06:32:53.256Z,94.59
2018-06-23T06:33:53.767Z,94.98
2018-06-23T06:34:53.155Z,95.07
2018-06-23T06:35:53.112Z,95.36
2018-06-23T06:36:53.070Z,94.69
2018-06-23T06:37:53.046Z,94.31
2018-06-23T06:38:52.977Z,94.69
2018-06-23T06:39:52.951Z,94.79
2018-06-23T06:40:52.911Z,94.88
2018-06-23T06:41:52.824Z,94.79
2018-06-23T06:42:52.816Z,95.26
2018-06-23T06:43:52.744Z,95.07
2018-06-23T06:44:52.715Z,95.07
2018-06-23T06:45:52.658Z,94.88
2018-06-23T06:46:52.617Z,95.46
2018-06-23T06:47:52.551Z,94.59
2018-06-23T06:48:52.531Z,94.88
2018-06-23T06:49:52.477Z,94.69
2018-06-23T06:50:52.456Z,95.65
2018-06-23T06:51:52.939Z,95.17
2018-06-23T06:52:52.336Z,95.07
2018-06-23T06:53:52.285Z,94.79
2018-06-23T06:54:52.259Z,94.69
2018-06-23T06:55:52.193Z,94.59
2018-06-23T06:56:52.132Z,94.79
2018-06-23T06:57:52.100Z,94.59
2018-06-23T06:58:52.061Z,95.17
2018-06-23T06:59:52.013Z,95.46
2018-06-23T07:00:51.955Z,95.07
2018-06-23T07:01:51.922Z,95.26
2018-06-23T07:02:51.884Z,95.84
2018-06-23T07:03:51.837Z,95.26
2018-06-23T07:04:51.767Z,94.98
2018-06-23T07:05:51.736Z,94.88
2018-06-23T07:06:51.660Z,95.17
2018-06-23T07:07:51.617Z,95.26
2018-06-23T07:08:51.825Z,95.36
2018-06-23T07:09:51.535Z,95.46
2018-06-23T07:10:51.492Z,95.36
2018-06-23T07:11:51.441Z,95.94
2018-06-23T07:12:51.390Z,95.75
2018-06-23T07:13:51.357Z,95.84
2018-06-23T07:14:51.288Z,95.65
2018-06-23T07:15:51.285Z,95.17
2018-06-23T07:16:51.205Z,95.26
2018-06-23T07:17:51.176Z,95.26
2018-06-23T07:18:51.128Z,94.40
2018-06-23T07:19:51.066Z,94.31
2018-06-23T07:20:51.011Z,94.21
2018-06-23T07:21:50.974Z,94.49
2018-06-23T07:22:50.957Z,94.69
2018-06-23T07:23:51.113Z,94.40
2018-06-23T07:24:50.836Z,94.59
2018-06-23T07:25:50.791Z,94.21
2018-06-23T07:26:50.754Z,94.49
2018-06-23T07:27:50.710Z,95.07
2018-06-23T07:28:50.677Z,95.36
2018-06-23T07:29:50.617Z,95.17
2018-06-23T07:30:50.622Z,95.94
2018-06-23T07:31:50.536Z,95.75
2018-06-23T07:32:50.492Z,95.55
2018-06-23T07:33:50.975Z,95.94
2018-06-23T07:34:50.500Z,96.03
2018-06-23T07:35:50.322Z,95.75
2018-06-23T07:36:50.292Z,95.94
2018-06-23T07:37:50.243Z,95.75
2018-06-23T07:38:50.184Z,95.26
2018-06-23T07:39:50.147Z,95.46
2018-06-23T07:40:50.087Z,94.69
2018-06-23T07:41:50.059Z,95.65
2018-06-23T07:42:50.018Z,96.13
2018-06-23T07:43:49.944Z,95.79
2018-06-23T07:44:49.919Z,96.32
2018-06-23T07:45:49.852Z,95.94
2018-06-23T07:46:49.810Z,95.94
2018-06-23T07:47:49.968Z,95.75
2018-06-23T07:48:49.725Z,95.17
2018-06-23T07:49:49.658Z,94.79
2018-06-23T07:50:49.627Z,95.26
2018-06-23T07:51:49.606Z,94.79
2018-06-23T07:52:49.525Z,95.17
2018-06-23T07:53:49.499Z,95.75
2018-06-23T07:54:49.447Z,95.55
2018-06-23T07:55:49.394Z,94.64
2018-06-23T07:56:49.358Z,95.55
2018-06-23T07:57:49.305Z,95.79
2018-06-23T07:58:49.241Z,95.60
2018-06-23T07:59:49.221Z,96.32
2018-06-23T08:00:49.186Z,96.13
2018-06-23T08:01:49.143Z,96.03
2018-06-23T08:02:49.082Z,96.03
2018-06-23T08:03:49.007Z,95.12
2018-06-23T08:04:49.000Z,95.79
2018-06-23T08:05:48.954Z,95.79
2018-06-23T08:06:48.894Z,96.42
2018-06-23T08:07:48.854Z,95.84
2018-06-23T08:08:48.796Z,95.75
2018-06-23T08:09:48.728Z,95.94
2018-06-23T08:10:48.680Z,96.03
2018-06-23T08:11:48.675Z,95.94
2018-06-23T08:12:48.601Z,95.75
2018-06-23T08:13:48.542Z,95.55
2018-06-23T08:14:48.492Z,95.36
2018-06-23T08:15:48.447Z,96.22
2018-06-23T08:16:48.408Z,95.84
2018-06-23T08:17:48.369Z,96.18
2018-06-23T08:18:48.335Z,95.89
2018-06-23T08:19:48.290Z,96.18
2018-06-23T08:20:48.243Z,96.18
2018-06-23T08:21:48.183Z,96.08
2018-06-23T08:22:48.132Z,96.75
2018-06-23T08:23:48.095Z,96.75
2018-06-23T08:24:48.044Z,96.47
2018-06-23T08:25:47.989Z,96.85
2018-06-23T08:26:47.974Z,96.27
2018-06-23T08:27:47.926Z,96.37
2018-06-23T08:28:47.878Z,96.37
2018-06-23T08:29:47.824Z,96.47
2018-06-23T08:30:47.762Z,96.32
2018-06-23T08:31:47.708Z,96.42
2018-06-23T08:32:47.688Z,95.84
2018-06-23T08:33:47.628Z,94.98
2018-06-23T08:34:47.590Z,94.88
2018-06-23T08:35:47.510Z,94.69
2018-06-23T08:36:47.500Z,95.26
2018-06-23T08:37:47.477Z,95.79
2018-06-23T08:38:47.403Z,95.89
2018-06-23T08:39:47.355Z,95.89
2018-06-23T08:40:47.303Z,95.94
2018-06-23T08:41:47.262Z,95.46
2018-06-23T08:42:47.189Z,95.46
2018-06-23T08:43:47.166Z,94.69
2018-06-23T08:44:47.135Z,94.31
2018-06-23T08:45:47.083Z,94.21
2018-06-23T08:46:47.016Z,94.21
2018-06-23T08:47:46.981Z,94.12
2018-06-23T08:48:46.920Z,95.46
2018-06-23T08:49:46.869Z,95.79
2018-06-23T08:50:46.856Z,96.08
2018-06-23T08:51:46.799Z,96.08
2018-06-23T08:52:46.764Z,96.47
2018-06-23T08:53:46.694Z,96.18
2018-06-23T08:54:46.648Z,96.47
2018-06-23T08:55:46.634Z,96.22
2018-06-23T08:56:46.598Z,95.75
2018-06-23T08:57:46.510Z,95.07
2018-06-23T08:58:46.501Z,94.12
2018-06-23T08:59:46.410Z,94.40
2018-06-23T09:00:46.374Z,94.21
2018-06-23T09:01:46.393Z,94.45
2018-06-23T09:02:46.289Z,95.12
2018-06-23T09:03:46.224Z,95.89
2018-06-23T09:04:46.735Z,96.18
2018-06-23T09:05:46.135Z,96.18
2018-06-23T09:06:46.088Z,96.08
2018-06-23T09:07:46.048Z,96.66
2018-06-23T09:08:46.005Z,96.37
2018-06-23T09:09:45.959Z,96.18
2018-06-23T09:10:45.897Z,95.79
2018-06-23T09:11:45.870Z,95.70
2018-06-23T09:12:45.786Z,95.79
2018-06-23T09:13:45.758Z,95.89
2018-06-23T09:14:45.702Z,95.89
2018-06-23T09:15:45.664Z,95.79
2018-06-23T09:16:45.625Z,95.89
2018-06-23T09:17:45.568Z,95.98
2018-06-23T09:18:45.540Z,95.70
2018-06-23T09:19:45.566Z,95.89
2018-06-23T09:20:45.495Z,95.79
2018-06-23T09:21:45.385Z,95.31
2018-06-23T09:22:45.362Z,95.51
2018-06-23T09:23:45.331Z,95.36
2018-06-23T09:24:45.244Z,94.88
2018-06-23T09:25:45.251Z,95.07
2018-06-23T09:26:45.160Z,95.17
2018-06-23T09:27:45.678Z,95.03
2018-06-23T09:28:45.083Z,95.21
2018-06-23T09:29:45.020Z,95.31
2018-06-23T09:30:44.989Z,95.31
2018-06-23T09:31:44.917Z,95.89
2018-06-23T09:32:44.878Z,96.27
2018-06-23T09:33:44.861Z,96.37
2018-06-23T09:34:44.792Z,95.70
2018-06-23T09:35:44.737Z,96.08
2018-06-23T09:36:44.702Z,96.66
2018-06-23T09:37:44.638Z,96.75
2018-06-23T09:38:44.617Z,96.56
2018-06-23T09:39:44.553Z,96.94
2018-06-23T09:40:44.503Z,96.85
2018-06-23T09:41:44.436Z,96.66
2018-06-23T09:42:44.412Z,96.94
2018-06-23T09:43:44.349Z,96.94
2018-06-23T09:44:44.336Z,97.14
2018-06-23T09:45:44.265Z,96.85
2018-06-23T09:46:44.225Z,97.23
2018-06-23T09:47:44.197Z,97.23
2018-06-23T09:48:44.117Z,96.56
2018-06-23T09:49:44.079Z,96.27
2018-06-23T09:50:44.042Z,96.47
2018-06-23T09:51:43.991Z,96.27
2018-06-23T09:52:43.964Z,96.56
2018-06-23T09:53:43.899Z,96.94
2018-06-23T09:54:43.845Z,97.18
2018-06-23T09:55:43.870Z,97.52
2018-06-23T09:56:43.777Z,97.61
2018-06-23T09:57:43.704Z,97.52
2018-06-23T09:58:43.666Z,96.56
2018-06-23T09:59:43.625Z,96.85
2018-06-23T10:00:43.576Z,97.14
2018-06-23T10:01:43.531Z,96.56
2018-06-23T10:02:43.480Z,96.85
2018-06-23T10:03:43.413Z,97.23
2018-06-23T10:04:43.384Z,97.90
2018-06-23T10:05:43.324Z,98.10
2018-06-23T10:06:43.268Z,97.71
2018-06-23T10:07:43.236Z,97.71
2018-06-23T10:08:43.183Z,98.10
2018-06-23T10:09:43.142Z,97.71
2018-06-23T10:10:43.097Z,97.52
2018-06-23T10:11:43.053Z,97.23
2018-06-23T10:12:43.001Z,97.42
2018-06-23T10:13:42.973Z,97.42
2018-06-23T10:14:42.942Z,97.52
2018-06-23T10:15:42.853Z,97.90
2018-06-23T10:16:42.818Z,98.10
2018-06-23T10:17:42.767Z,98.10
2018-06-23T10:18:42.725Z,98.10
2018-06-23T10:19:42.681Z,97.90
2018-06-23T10:20:42.639Z,97.90
2018-06-23T10:21:42.598Z,97.61
2018-06-23T10:22:42.536Z,97.42
2018-06-23T10:23:42.478Z,97.90
2018-06-23T10:24:42.454Z,97.81
2018-06-23T10:25:42.384Z,97.81
2018-06-23T10:26:42.388Z,98.48
2018-06-23T10:27:42.325Z,98.48
2018-06-23T10:28:42.273Z,97.90
2018-06-23T10:29:42.232Z,97.61
2018-06-23T10:30:42.174Z,96.89
2018-06-23T10:31:42.106Z,97.09
2018-06-23T10:32:42.087Z,96.99
2018-06-23T10:33:42.039Z,96.51
2018-06-23T10:34:41.987Z,96.42
2018-06-23T10:35:41.937Z,96.61
2018-06-23T10:36:41.883Z,96.75
2018-06-23T10:37:42.395Z,97.23
2018-06-23T10:38:41.800Z,97.81
2018-06-23T10:39:41.732Z,97.38
2018-06-23T10:40:41.687Z,96.89
2018-06-23T10:41:41.665Z,96.51
2018-06-23T10:42:41.633Z,96.22
2018-06-23T10:43:41.573Z,96.42
2018-06-23T10:44:41.501Z,96.70
2018-06-23T10:45:41.468Z,96.32
2018-06-23T10:46:41.453Z,96.70
2018-06-23T10:47:41.390Z,96.22
2018-06-23T10:48:41.342Z,96.42
2018-06-23T10:49:41.309Z,96.13
2018-06-23T10:50:41.250Z,96.32
2018-06-23T10:51:41.190Z,96.32
2018-06-23T10:52:41.137Z,96.13
2018-06-23T10:53:41.090Z,96.61
2018-06-23T10:54:41.077Z,97.38
2018-06-23T10:55:40.991Z,97.28
2018-06-23T10:56:40.947Z,96.51
2018-06-23T10:57:40.950Z,96.80
2018-06-23T10:58:40.872Z,95.70
2018-06-23T10:59:40.807Z,95.03
2018-06-23T11:00:40.776Z,94.45
2018-06-23T11:01:40.762Z,94.35
2018-06-23T11:02:40.670Z,94.35
2018-06-23T11:03:40.642Z,95.41
2018-06-23T11:04:40.585Z,94.26
2018-06-23T11:05:40.542Z,93.97
2018-06-23T11:06:40.514Z,93.77
2018-06-23T11:07:40.533Z,93.59
2018-06-23T11:08:40.414Z,93.54
2018-06-23T11:09:40.377Z,93.68
2018-06-23T11:10:40.325Z,93.15
2018-06-23T11:11:40.279Z,93.73
2018-06-23T11:12:40.246Z,93.73
2018-06-23T11:13:40.190Z,93.59
2018-06-23T11:14:40.143Z,94.49
2018-06-23T11:15:40.104Z,94.11
2018-06-23T11:16:40.041Z,93.54
2018-06-23T11:17:40.002Z,93.44
2018-06-23T11:18:39.956Z,93.15
2018-06-23T11:19:39.912Z,92.48
2018-06-23T11:20:39.901Z,92.00
2018-06-23T11:21:39.844Z,92.14
2018-06-23T11:22:39.787Z,92.67
2018-06-23T11:23:39.750Z,92.77
2018-06-23T11:24:39.886Z,92.96
2018-06-23T11:25:39.654Z,93.25
2018-06-23T11:26:39.627Z,94.31
2018-06-23T11:27:39.565Z,94.40
2018-06-23T11:28:39.533Z,94.11
2018-06-23T11:29:39.455Z,93.82
2018-06-23T11:30:39.443Z,93.82
2018-06-23T11:31:39.390Z,93.82
2018-06-23T11:32:39.353Z,93.92
2018-06-23T11:33:39.307Z,93.82
2018-06-23T11:34:39.257Z,94.01
2018-06-23T11:35:39.224Z,94.11
2018-06-23T11:36:39.143Z,94.31
2018-06-23T11:37:39.097Z,94.69
2018-06-23T11:38:39.059Z,94.21
2018-06-23T11:39:39.034Z,95.07
2018-06-23T11:40:38.988Z,95.26
2018-06-23T11:41:38.929Z,95.07
2018-06-23T11:42:38.900Z,95.55
2018-06-23T11:43:38.837Z,95.55
2018-06-23T11:44:38.827Z,94.78
2018-06-23T11:45:38.754Z,94.59
2018-06-23T11:46:38.771Z,94.78
2018-06-23T11:47:38.662Z,94.98
2018-06-23T11:48:38.598Z,95.45
2018-06-23T11:49:38.578Z,95.26
2018-06-23T11:50:38.522Z,95.17
2018-06-23T11:51:38.461Z,94.59
2018-06-23T11:52:38.426Z,94.78
2018-06-23T11:53:38.395Z,94.40
2018-06-23T11:54:38.364Z,94.49
2018-06-23T11:55:38.295Z,93.73
2018-06-23T11:56:38.248Z,93.82
2018-06-23T11:57:38.200Z,94.49
2018-06-23T11:58:38.143Z,94.01
2018-06-23T11:59:38.121Z,94.59
2018-06-23T12:00:38.063Z,93.73
2018-06-23T12:01:38.017Z,94.01
2018-06-23T12:02:37.970Z,94.59
2018-06-23T12:03:37.940Z,94.78
2018-06-23T12:04:37.883Z,94.69
2018-06-23T12:05:37.851Z,94.40
2018-06-23T12:06:37.804Z,94.40
2018-06-23T12:07:37.744Z,94.69
2018-06-23T12:08:37.698Z,94.78
2018-06-23T12:09:37.682Z,94.88
2018-06-23T12:10:37.639Z,94.31
2018-06-23T12:11:37.592Z,94.21
2018-06-23T12:12:37.528Z,94.31
2018-06-23T12:13:37.481Z,93.92
2018-06-23T12:14:37.414Z,93.73
2018-06-23T12:15:37.394Z,93.73
2018-06-23T12:16:37.343Z,93.82
2018-06-23T12:17:37.294Z,93.39
2018-06-23T12:18:37.237Z,93.73
2018-06-23T12:19:37.212Z,93.15
2018-06-23T12:20:37.146Z,92.00
2018-06-23T12:21:37.099Z,92.10
2018-06-23T12:22:37.074Z,92.77
2018-06-23T12:23:37.019Z,92.00
2018-06-23T12:24:36.977Z,92.19
2018-06-23T12:25:36.920Z,91.81
2018-06-23T12:26:36.874Z,92.19
2018-06-23T12:27:36.857Z,91.81
2018-06-23T12:28:36.796Z,92.24
2018-06-23T12:29:36.729Z,91.66
2018-06-23T12:30:36.700Z,91.08
2018-06-23T12:31:36.666Z,90.99
2018-06-23T12:32:36.622Z,91.66
2018-06-23T12:33:36.557Z,90.89
2018-06-23T12:34:36.504Z,91.81
2018-06-23T12:35:36.480Z,90.89
2018-06-23T12:36:36.435Z,90.22
2018-06-23T12:37:36.369Z,91.18
2018-06-23T12:38:36.329Z,90.80
2018-06-23T12:39:36.277Z,90.89
2018-06-23T12:40:36.247Z,90.80
2018-06-23T12:41:36.342Z,90.99
2018-06-23T12:42:36.161Z,90.99
2018-06-23T12:43:36.103Z,90.65
2018-06-23T12:44:36.080Z,89.59
2018-06-23T12:45:36.018Z,89.50
2018-06-23T12:46:35.977Z,88.63
2018-06-23T12:47:35.942Z,88.44
2018-06-23T12:48:35.882Z,88.24
2018-06-23T12:49:35.825Z,88.34
2018-06-23T12:50:35.848Z,87.52
2018-06-23T12:51:35.768Z,86.75